List, Germany

7:19 PM CEST on July 28, 2014 (GMT +0200)
Sylt (ISCHLESW46) Elev 62 ft | 55.00 °N, 8.37 °E | Change Station

Current weather conditions updated 5 minutes ago

Clear
Clear
72.6 °F
Feels Like 74 °F
N
11.0
Wind Variable Wind from WNW
Gusts 22.0 mph

Tomorrow is forecast to be Cooler than today.

Today
High -- | Low -- °F
--% Chance of Precip.
Yesterday
High -- | Low -- °F
Precip. -- in
5:27 AM 9:36 PM
Waxing Crescent, 3% visible
Pressure 29.92 in
Visibility -9999.0 miles
Clouds
Heat Index 74 °F
Dew Point 65 °F
Humidity 77%
Rainfall 0.00 in
Snow Depth Not available.
UV Not available.
Pollen Not available.
Air Quality Not available.
Flu Activity Not available.
METAR EDXW 281650Z 34019KT CAVOK 22/17 Q1013 RMK ATIS WHI

More Conditions Fewer Conditions

Pressure 29.92 in
Visibility -9999.0 miles
Clouds
Heat Index 74 °F
Dew Point 65 °F
Humidity 77%
Rainfall 0.00 in
Snow Depth Not available.
UV Not available.
Pollen Not available.
Air Quality Not available.
Flu Activity Not available.
METAR EDXW 281650Z 34019KT CAVOK 22/17 Q1013 RMK ATIS WHI

More Conditions Fewer Conditions

10-Day Weather Forecast

Almanac

Astronomy

Jul. 28, 2014 Rise Set
Actual Time 5:27 AM CEST 9:36 PM CEST
Civil Twilight 4:39 AM CEST 10:24 PM CEST
Nautical Twilight 3:27 AM CEST 11:34 PM CEST
Astronomical Twilight 2:05 AM CEST 1:00 AM CEST
Moon 7:19 AM CEST 9:39 PM CEST
Length of Visible Light 17h 44m
Length of Day
16h 09m
Tomorrow will be 3m 30s shorter.
Waxing Crescent, 3% of the Moon is Illuminated
Today
Waxing Crescent
Aug 3
First Quarter
Aug 10
Full
Aug 17
Last Quarter
Aug 25
New

Today's Extremes

Country Highs Country Lows

Community

WunderPhotos

Upload Photos

1,738,419 photos uploaded!

Nearby

Snow Depth

Not available.

Earthquake Activity

City Distance Mag. Time & Date
No recent earthquake activity has been reported nearby.
Minimum magnitude displayed is 2.5.

Coastal Water Temperatures

Place Temperature
No Stations Reporting

Nearby Weather Stations

Station Location Temp. Heat Index Dew Point Humidity Wind Precip. Elev Updated Type
Sylt, List 72.6 °F 74 °F 65 °F 77% WNW  at  11.0 mph 0.00 in / hr 62 ft 7:13 PM CEST Normal
Keitum, Keitum 77.2 °F 79 °F 63 °F 61% WSW  at  0.2 mph 0.00 in / hr 10 ft 7:18 PM CEST Rapid Fire
Hojer, Tonder 77.2 °F 79 °F 67 °F 70% NNW  at  8.8 mph 0.00 in / hr 18 ft 7:10 PM CEST Normal
Suderlugum 79.7 °F 82 °F 66 °F 64% WNW  at  11.4 mph 0.00 in / hr 45 ft 7:14 PM CEST Normal
Sonderho - Fano, Sydligste by pa Fano 77.0 °F 79 °F 60 °F 56% NW  at  12.7 mph 0.00 in / hr 30 ft 7:18 PM CEST Rapid Fire

Show More Stations Show Fewer Stations